Time;durP1;ratioP1;P1;durP2;ratioP2;P2;SDS_P1;SDS_P2;PMS_P1;PMS_P2;Temp;Humidity;BMP_temperature;BMP_pressure;BME280_temperature;BME280_humidity;BME280_pressure;Samples;Min_cycle;Max_cycle;Signal;HPM_P1;HPM_P2
2020/12/06 00:00:36;;;;;;;0.00;0.00;;;;;;;;;;4908198;29;20062;-67
2020/12/06 00:03:07;;;;;;;0.75;0.68;;;;;;;;;;4905927;29;20059;-68
2020/12/06 00:05:35;;;;;;;0.00;0.00;;;;;;;;;;4907059;29;20154;-67
2020/12/06 00:08:03;;;;;;;0.00;0.00;;;;;;;;;;4921086;28;20051;-67
2020/12/06 00:10:28;;;;;;;0.00;0.00;;;;;;;;;;4905781;29;20183;-67
2020/12/06 00:12:56;;;;;;;0.30;0.30;;;;;;;;;;4909059;29;20027;-68
2020/12/06 00:15:22;;;;;;;0.20;0.20;;;;;;;;;;4903641;29;20032;-67
2020/12/06 00:17:48;;;;;;;0.22;0.22;;;;;;;;;;4907906;29;20424;-67
2020/12/06 00:20:13;;;;;;;3.30;1.33;;;;;;;;;;4921480;28;20496;-67
2020/12/06 00:22:39;;;;;;;0.00;0.00;;;;;;;;;;4907668;29;20731;-67
2020/12/06 00:25:05;;;;;;;0.20;0.20;;;;;;;;;;4908358;29;20039;-67
2020/12/06 00:27:32;;;;;;;0.00;0.00;;;;;;;;;;4906474;29;20035;-68
2020/12/06 00:30:00;;;;;;;0.00;0.00;;;;;;;;;;4907616;29;20135;-67
2020/12/06 00:32:34;;;;;;;0.00;0.00;;;;;;;;;;4902565;29;20039;-67
2020/12/06 00:34:59;;;;;;;0.75;0.75;;;;;;;;;;4905124;29;20031;-67
2020/12/06 00:37:24;;;;;;;0.00;0.00;;;;;;;;;;4903397;29;20070;-67
2020/12/06 00:39:55;;;;;;;0.00;0.00;;;;;;;;;;4904311;29;20144;-67
2020/12/06 00:42:23;;;;;;;0.00;0.00;;;;;;;;;;4903070;28;20163;-67
2020/12/06 00:44:48;;;;;;;0.10;0.10;;;;;;;;;;4905583;29;20112;-66
2020/12/06 00:47:18;;;;;;;0.08;0.08;;;;;;;;;;4905443;29;20035;-67
2020/12/06 00:49:43;;;;;;;0.88;0.88;;;;;;;;;;4920373;28;21032;-66
2020/12/06 00:52:11;;;;;;;1.40;1.25;;;;;;;;;;4905147;29;20039;-67
2020/12/06 00:54:41;;;;;;;0.00;0.00;;;;;;;;;;4903932;29;20491;-67
2020/12/06 00:57:15;;;;;;;0.52;0.52;;;;;;;;;;4903636;29;20028;-67
2020/12/06 00:59:43;;;;;;;0.00;0.00;;;;;;;;;;4903430;29;20036;-68
2020/12/06 01:02:11;;;;;;;0.35;0.35;;;;;;;;;;4904489;29;20648;-66
2020/12/06 01:04:39;;;;;;;0.00;0.00;;;;;;;;;;4919264;28;20035;-67
2020/12/06 01:07:07;;;;;;;0.00;0.00;;;;;;;;;;4902888;29;20047;-67
2020/12/06 01:09:37;;;;;;;0.15;0.15;;;;;;;;;;4904221;29;20039;-67
2020/12/06 01:12:03;;;;;;;0.38;0.38;;;;;;;;;;4907623;29;20210;-66
2020/12/06 01:14:29;;;;;;;0.00;0.00;;;;;;;;;;4907541;29;21750;-64
2020/12/06 01:16:57;;;;;;;1.17;1.17;;;;;;;;;;4902295;29;20035;-66
2020/12/06 01:19:23;;;;;;;0.10;0.10;;;;;;;;;;4902320;29;20125;-68
2020/12/06 01:21:52;;;;;;;0.98;0.98;;;;;;;;;;4903949;29;20047;-67
2020/12/06 01:24:18;;;;;;;0.00;0.00;;;;;;;;;;4907258;29;20344;-67
2020/12/06 01:26:48;;;;;;;0.00;0.00;;;;;;;;;;4905705;29;20238;-67
2020/12/06 01:29:14;;;;;;;1.25;1.25;;;;;;;;;;4908424;29;20064;-67
2020/12/06 01:31:49;;;;;;;0.00;0.00;;;;;;;;;;4921963;28;20408;-67
2020/12/06 01:34:16;;;;;;;0.32;0.32;;;;;;;;;;4919931;28;20531;-66
2020/12/06 01:36:42;;;;;;;0.70;0.70;;;;;;;;;;4909561;29;20574;-66
2020/12/06 01:39:10;;;;;;;0.15;0.15;;;;;;;;;;4910966;29;20035;-67
2020/12/06 01:41:35;;;;;;;0.20;0.20;;;;;;;;;;4907470;29;20046;-66
2020/12/06 01:44:03;;;;;;;0.22;0.22;;;;;;;;;;4893657;29;20039;-67
2020/12/06 01:46:33;;;;;;;0.00;0.00;;;;;;;;;;4924007;28;20043;-66
2020/12/06 01:48:58;;;;;;;0.22;0.22;;;;;;;;;;4909730;29;20043;-66
2020/12/06 01:51:24;;;;;;;0.00;0.00;;;;;;;;;;4902717;29;20042;-66
2020/12/06 01:53:54;;;;;;;0.65;0.65;;;;;;;;;;4906652;29;20039;-66
2020/12/06 01:56:22;;;;;;;0.30;0.30;;;;;;;;;;4921848;28;20036;-67
2020/12/06 01:58:50;;;;;;;0.22;0.10;;;;;;;;;;4905914;29;20039;-66
2020/12/06 02:01:18;;;;;;;1.45;1.02;;;;;;;;;;4920893;28;20779;-66
2020/12/06 02:03:48;;;;;;;0.00;0.00;;;;;;;;;;4908303;29;20217;-66
2020/12/06 02:06:16;;;;;;;0.00;0.00;;;;;;;;;;4921353;28;20183;-66
2020/12/06 02:08:41;;;;;;;0.00;0.00;;;;;;;;;;4907625;29;20114;-67
2020/12/06 02:11:09;;;;;;;1.02;1.02;;;;;;;;;;4908308;29;20939;-66
2020/12/06 02:13:39;;;;;;;0.10;0.10;;;;;;;;;;4907127;29;20040;-66
2020/12/06 02:16:04;;;;;;;0.00;0.00;;;;;;;;;;4892537;29;20875;-67
2020/12/06 02:18:32;;;;;;;0.85;0.85;;;;;;;;;;4921286;28;20044;-66
2020/12/06 02:20:59;;;;;;;1.02;1.02;;;;;;;;;;4906112;29;20126;-66
2020/12/06 02:23:24;;;;;;;0.15;0.15;;;;;;;;;;4905607;28;20031;-66
2020/12/06 02:26:14;;;;;;;0.52;0.45;;;;;;;;;;4907514;29;20061;-66
2020/12/06 02:28:39;;;;;;;0.40;0.40;;;;;;;;;;4904584;29;20046;-66
2020/12/06 02:31:10;;;;;;;0.00;0.00;;;;;;;;;;4905523;29;20039;-65
2020/12/06 02:33:41;;;;;;;0.38;0.38;;;;;;;;;;4904368;29;20059;-66
2020/12/06 02:36:06;;;;;;;0.43;0.43;;;;;;;;;;4906174;29;20027;-66
2020/12/06 02:38:32;;;;;;;0.00;0.00;;;;;;;;;;4909631;29;20094;-66
2020/12/06 02:40:57;;;;;;;2.30;1.20;;;;;;;;;;4909150;29;20038;-66
2020/12/06 02:43:25;;;;;;;0.52;0.52;;;;;;;;;;4906308;29;20050;-66
2020/12/06 02:45:51;;;;;;;0.70;0.70;;;;;;;;;;4908080;29;20040;-65
2020/12/06 02:48:16;;;;;;;0.05;0.05;;;;;;;;;;4906093;29;20035;-66
2020/12/06 02:50:44;;;;;;;0.00;0.00;;;;;;;;;;4904897;29;20024;-65
2020/12/06 02:53:14;;;;;;;0.00;0.00;;;;;;;;;;4921995;28;20174;-66
2020/12/06 02:55:42;;;;;;;0.00;0.00;;;;;;;;;;4919198;28;20086;-66
2020/12/06 02:58:10;;;;;;;0.30;0.20;;;;;;;;;;4903644;29;20538;-65
2020/12/06 03:00:35;;;;;;;0.65;0.65;;;;;;;;;;4905213;29;20036;-65
2020/12/06 03:03:01;;;;;;;0.17;0.17;;;;;;;;;;4889689;29;20530;-65
2020/12/06 03:09:04;;;;;;;0.00;0.00;;;;;;;;;;4905773;29;20050;-66
2020/12/06 03:11:31;;;;;;;0.08;0.08;;;;;;;;;;4905906;29;20039;-66
2020/12/06 03:14:01;;;;;;;0.00;0.00;;;;;;;;;;4906232;29;20036;-65
2020/12/06 03:16:29;;;;;;;0.00;0.00;;;;;;;;;;4888880;29;20031;-66
2020/12/06 03:19:00;;;;;;;0.28;0.28;;;;;;;;;;4903569;29;22311;-64
2020/12/06 03:21:28;;;;;;;0.00;0.00;;;;;;;;;;4906042;29;20091;-66
2020/12/06 03:23:53;;;;;;;0.00;0.00;;;;;;;;;;4904871;29;20183;-65
2020/12/06 03:26:21;;;;;;;2.08;0.38;;;;;;;;;;4903889;29;20035;-64
2020/12/06 03:28:51;;;;;;;0.00;0.00;;;;;;;;;;4907098;29;20044;-65
2020/12/06 03:31:16;;;;;;;0.00;0.00;;;;;;;;;;4897515;29;20066;-65
2020/12/06 03:33:42;;;;;;;0.40;0.40;;;;;;;;;;4920969;28;20146;-65
2020/12/06 03:36:12;;;;;;;0.00;0.00;;;;;;;;;;4919188;28;20627;-65
2020/12/06 03:38:38;;;;;;;0.00;0.00;;;;;;;;;;4889126;29;20573;-65
2020/12/06 03:41:05;;;;;;;0.55;0.40;;;;;;;;;;4906016;29;20484;-64
2020/12/06 03:43:31;;;;;;;0.00;0.00;;;;;;;;;;4903380;29;20042;-65
2020/12/06 03:45:59;;;;;;;0.00;0.00;;;;;;;;;;4907678;29;20058;-64
2020/12/06 03:48:24;;;;;;;0.00;0.00;;;;;;;;;;4906328;29;20567;-65
2020/12/06 03:50:56;;;;;;;0.00;0.00;;;;;;;;;;4906972;29;20024;-66
2020/12/06 03:56:57;;;;;;;0.22;0.22;;;;;;;;;;4906361;29;20125;-66
2020/12/06 03:59:25;;;;;;;0.00;0.00;;;;;;;;;;4905805;29;20040;-64
2020/12/06 04:01:55;;;;;;;0.30;0.17;;;;;;;;;;4905570;29;20039;-66
2020/12/06 04:04:23;;;;;;;0.00;0.00;;;;;;;;;;4904645;29;20047;-65
2020/12/06 04:06:53;;;;;;;0.50;0.50;;;;;;;;;;4903669;29;20043;-65
2020/12/06 04:09:22;;;;;;;1.15;1.10;;;;;;;;;;4903312;29;20608;-65
2020/12/06 04:11:49;;;;;;;0.30;0.30;;;;;;;;;;4905718;29;20031;-65
2020/12/06 04:14:15;;;;;;;0.00;0.00;;;;;;;;;;4905793;29;20452;-65
2020/12/06 04:16:46;;;;;;;0.00;0.00;;;;;;;;;;4918772;28;20537;-65
2020/12/06 04:19:13;;;;;;;0.20;0.20;;;;;;;;;;4905852;29;20042;-65
2020/12/06 04:21:39;;;;;;;0.00;0.00;;;;;;;;;;4901859;29;20915;-66
2020/12/06 04:24:04;;;;;;;0.75;0.50;;;;;;;;;;4919026;28;20031;-64
2020/12/06 04:29:43;;;;;;;0.00;0.00;;;;;;;;;;4905711;29;20047;-65
2020/12/06 04:32:11;;;;;;;0.10;0.10;;;;;;;;;;4903982;29;20059;-65
2020/12/06 04:34:45;;;;;;;0.10;0.10;;;;;;;;;;4903372;29;20035;-65
2020/12/06 04:37:11;;;;;;;0.05;0.05;;;;;;;;;;4903948;29;20118;-65
2020/12/06 04:39:39;;;;;;;0.25;0.25;;;;;;;;;;4905180;29;20432;-65
2020/12/06 04:42:07;;;;;;;0.00;0.00;;;;;;;;;;4904604;29;20038;-64
2020/12/06 04:44:54;;;;;;;0.20;0.20;;;;;;;;;;4903742;29;20049;-65
2020/12/06 04:47:42;;;;;;;0.20;0.20;;;;;;;;;;4902369;29;20366;-65
2020/12/06 04:50:11;;;;;;;0.00;0.00;;;;;;;;;;4904574;29;20142;-64
2020/12/06 04:56:16;;;;;;;3.10;1.50;;;;;;;;;;4908285;29;20703;-65
2020/12/06 04:58:41;;;;;;;0.00;0.00;;;;;;;;;;4911040;29;20043;-64
2020/12/06 05:01:07;;;;;;;1.48;1.38;;;;;;;;;;4909463;29;20027;-65
2020/12/06 05:03:36;;;;;;;0.85;0.85;;;;;;;;;;4907650;29;20671;-63
2020/12/06 05:06:06;;;;;;;0.00;0.00;;;;;;;;;;4910617;29;20095;-65
2020/12/06 05:12:03;;;;;;;0.00;0.00;;;;;;;;;;4872148;29;20476;-64
2020/12/06 05:14:29;;;;;;;0.22;0.22;;;;;;;;;;4872418;29;20033;-65
2020/12/06 05:16:55;;;;;;;0.20;0.20;;;;;;;;;;4886992;29;20045;-64
2020/12/06 05:19:23;;;;;;;0.20;0.20;;;;;;;;;;4871607;29;20040;-64
2020/12/06 05:21:49;;;;;;;0.38;0.38;;;;;;;;;;4869740;29;20054;-65
2020/12/06 05:24:15;;;;;;;0.30;0.30;;;;;;;;;;4870435;29;20560;-65
2020/12/06 05:26:43;;;;;;;0.08;0.08;;;;;;;;;;4869319;29;20032;-65
2020/12/06 05:29:11;;;;;;;0.10;0.10;;;;;;;;;;4872826;29;20540;-65
2020/12/06 05:31:37;;;;;;;0.00;0.00;;;;;;;;;;4869865;29;20037;-64
2020/12/06 05:34:02;;;;;;;0.00;0.00;;;;;;;;;;4870874;29;20036;-64
2020/12/06 05:36:27;;;;;;;1.88;1.77;;;;;;;;;;4871465;29;20037;-65
2020/12/06 05:38:56;;;;;;;0.30;0.30;;;;;;;;;;4871181;29;20036;-65
2020/12/06 05:41:26;;;;;;;0.00;0.00;;;;;;;;;;4870259;29;20147;-65
2020/12/06 05:43:54;;;;;;;0.00;0.00;;;;;;;;;;4869102;29;20032;-64
2020/12/06 05:46:20;;;;;;;0.50;0.50;;;;;;;;;;4870919;29;20025;-64
2020/12/06 05:49:23;;;;;;;0.20;0.20;;;;;;;;;;4871094;29;20383;-64
2020/12/06 05:51:52;;;;;;;0.30;0.30;;;;;;;;;;4870209;29;20425;-64
2020/12/06 05:54:21;;;;;;;0.05;0.05;;;;;;;;;;4869920;29;20032;-65
2020/12/06 05:56:50;;;;;;;0.00;0.00;;;;;;;;;;4868430;29;20224;-65
2020/12/06 05:59:19;;;;;;;0.32;0.32;;;;;;;;;;4871758;29;20119;-63
2020/12/06 06:01:49;;;;;;;1.00;0.80;;;;;;;;;;4870007;29;20037;-64
2020/12/06 06:04:16;;;;;;;4.30;1.92;;;;;;;;;;4869585;29;20143;-65
2020/12/06 06:06:47;;;;;;;0.00;0.00;;;;;;;;;;4869112;29;20449;-63
2020/12/06 06:09:13;;;;;;;0.20;0.20;;;;;;;;;;4883941;29;20491;-64
2020/12/06 06:11:41;;;;;;;0.00;0.00;;;;;;;;;;4918271;28;21039;-62
2020/12/06 06:14:11;;;;;;;0.20;0.20;;;;;;;;;;4908813;29;20035;-63
2020/12/06 06:16:39;;;;;;;1.77;1.65;;;;;;;;;;4907187;29;20451;-63
2020/12/06 06:19:20;;;;;;;0.00;0.00;;;;;;;;;;4909039;29;20482;-62
2020/12/06 06:21:48;;;;;;;2.53;2.25;;;;;;;;;;4907910;29;20048;-64
2020/12/06 06:24:16;;;;;;;0.00;0.00;;;;;;;;;;4907297;29;20039;-64
2020/12/06 06:26:43;;;;;;;0.45;0.35;;;;;;;;;;4922670;28;20045;-63
2020/12/06 06:29:12;;;;;;;0.00;0.00;;;;;;;;;;4908026;29;20040;-64
2020/12/06 06:31:41;;;;;;;2.60;1.75;;;;;;;;;;4905843;29;20501;-64
2020/12/06 06:34:09;;;;;;;0.00;0.00;;;;;;;;;;4906020;29;20027;-64
2020/12/06 06:36:37;;;;;;;1.35;0.75;;;;;;;;;;4920869;28;20400;-64
2020/12/06 06:39:05;;;;;;;0.00;0.00;;;;;;;;;;4906086;29;20039;-65
2020/12/06 06:41:32;;;;;;;0.00;0.00;;;;;;;;;;4906171;29;20035;-65
2020/12/06 06:44:03;;;;;;;0.00;0.00;;;;;;;;;;4906600;29;20031;-64
2020/12/06 06:46:34;;;;;;;0.32;0.32;;;;;;;;;;4904591;29;20078;-62
2020/12/06 06:49:10;;;;;;;0.00;0.00;;;;;;;;;;4907136;29;21994;-62
2020/12/06 06:51:35;;;;;;;0.40;0.40;;;;;;;;;;4904876;29;20632;-62
2020/12/06 06:54:08;;;;;;;0.15;0.15;;;;;;;;;;4906905;29;20031;-63
2020/12/06 06:56:48;;;;;;;0.00;0.00;;;;;;;;;;4920424;28;20686;-63
2020/12/06 06:59:16;;;;;;;0.55;0.55;;;;;;;;;;4921641;28;20109;-64
2020/12/06 07:01:53;;;;;;;0.00;0.00;;;;;;;;;;4908378;29;20040;-63
2020/12/06 07:04:19;;;;;;;0.43;0.43;;;;;;;;;;4906006;29;20106;-62
2020/12/06 07:06:48;;;;;;;0.00;0.00;;;;;;;;;;4906421;29;20038;-63
2020/12/06 07:09:14;;;;;;;0.00;0.00;;;;;;;;;;4907933;29;20031;-64
2020/12/06 07:11:41;;;;;;;0.00;0.00;;;;;;;;;;4905450;29;20094;-63
2020/12/06 07:14:06;;;;;;;0.00;0.00;;;;;;;;;;4909474;29;20153;-63
2020/12/06 07:16:32;;;;;;;0.00;0.00;;;;;;;;;;4900812;29;21622;-64
2020/12/06 07:18:57;;;;;;;0.00;0.00;;;;;;;;;;4897171;28;20120;-64
2020/12/06 07:21:29;;;;;;;0.43;0.43;;;;;;;;;;4905062;29;20038;-63
2020/12/06 07:23:56;;;;;;;1.95;0.95;;;;;;;;;;4904516;29;20039;-64
2020/12/06 07:26:23;;;;;;;1.23;1.02;;;;;;;;;;4922450;28;20059;-64
2020/12/06 07:28:52;;;;;;;0.32;0.32;;;;;;;;;;4921641;28;20059;-63
2020/12/06 07:31:20;;;;;;;0.00;0.00;;;;;;;;;;4906027;29;20578;-65
2020/12/06 07:33:50;;;;;;;0.00;0.00;;;;;;;;;;4906238;29;20024;-65
2020/12/06 07:36:16;;;;;;;0.00;0.00;;;;;;;;;;4905571;29;20075;-65
2020/12/06 07:38:41;;;;;;;0.00;0.00;;;;;;;;;;4908875;29;20519;-64
2020/12/06 07:41:09;;;;;;;0.32;0.32;;;;;;;;;;4906735;29;20035;-63
2020/12/06 07:43:34;;;;;;;0.00;0.00;;;;;;;;;;4908313;29;20174;-63
2020/12/06 07:46:20;;;;;;;0.52;0.52;;;;;;;;;;4906093;29;20127;-63
2020/12/06 07:48:58;;;;;;;0.00;0.00;;;;;;;;;;4913621;28;20764;-64
2020/12/06 07:51:29;;;;;;;0.00;0.00;;;;;;;;;;4907190;29;20211;-64
2020/12/06 07:53:59;;;;;;;1.27;0.55;;;;;;;;;;4918580;28;20126;-65
2020/12/06 07:56:29;;;;;;;0.00;0.00;;;;;;;;;;4906578;29;20032;-63
2020/12/06 07:59:07;;;;;;;0.00;0.00;;;;;;;;;;4905512;29;20035;-63
2020/12/06 08:01:35;;;;;;;0.10;0.10;;;;;;;;;;4906133;29;20158;-64
2020/12/06 08:04:04;;;;;;;0.15;0.15;;;;;;;;;;4907419;29;20052;-64
2020/12/06 08:06:30;;;;;;;0.10;0.10;;;;;;;;;;4904003;29;22007;-65
2020/12/06 08:08:59;;;;;;;0.00;0.00;;;;;;;;;;4905815;29;20039;-64
2020/12/06 08:11:42;;;;;;;0.00;0.00;;;;;;;;;;4905910;29;20039;-64
2020/12/06 08:14:12;;;;;;;0.00;0.00;;;;;;;;;;4905789;29;20063;-64
2020/12/06 08:16:37;;;;;;;0.00;0.00;;;;;;;;;;4904091;28;20148;-64
2020/12/06 08:19:06;;;;;;;0.00;0.00;;;;;;;;;;4905758;29;20570;-63
2020/12/06 08:21:44;;;;;;;0.00;0.00;;;;;;;;;;4903818;29;20357;-63
2020/12/06 08:24:18;;;;;;;0.00;0.00;;;;;;;;;;4920884;28;20514;-63
2020/12/06 08:26:47;;;;;;;0.10;0.10;;;;;;;;;;4905110;29;20054;-63
2020/12/06 08:29:12;;;;;;;0.15;0.15;;;;;;;;;;4922160;28;20043;-63
2020/12/06 08:31:40;;;;;;;0.00;0.00;;;;;;;;;;4895763;29;20094;-63
2020/12/06 08:34:10;;;;;;;0.00;0.00;;;;;;;;;;4915444;28;20028;-64
2020/12/06 08:36:41;;;;;;;0.00;0.00;;;;;;;;;;4901363;29;20476;-64
2020/12/06 08:39:19;;;;;;;0.00;0.00;;;;;;;;;;4903705;29;20048;-64
2020/12/06 08:41:48;;;;;;;0.00;0.00;;;;;;;;;;4906443;29;20032;-64
2020/12/06 08:44:13;;;;;;;0.55;0.55;;;;;;;;;;4921029;28;20310;-63
2020/12/06 08:46:54;;;;;;;0.00;0.00;;;;;;;;;;4919808;28;20503;-63
2020/12/06 08:49:21;;;;;;;0.00;0.00;;;;;;;;;;4916366;28;20427;-64
2020/12/06 08:51:54;;;;;;;0.10;0.10;;;;;;;;;;4906366;29;20189;-64
2020/12/06 08:54:36;;;;;;;0.00;0.00;;;;;;;;;;4904421;29;20407;-63
2020/12/06 08:57:10;;;;;;;0.00;0.00;;;;;;;;;;4918930;28;20032;-64
2020/12/06 08:59:39;;;;;;;0.00;0.00;;;;;;;;;;4904540;29;20058;-63
2020/12/06 09:02:05;;;;;;;0.75;0.55;;;;;;;;;;4907401;29;21684;-63
2020/12/06 09:04:35;;;;;;;0.00;0.00;;;;;;;;;;4905440;29;20192;-64
2020/12/06 09:07:02;;;;;;;0.00;0.00;;;;;;;;;;4904345;29;20036;-64
2020/12/06 09:09:30;;;;;;;0.20;0.20;;;;;;;;;;4905158;29;20028;-65
2020/12/06 09:11:56;;;;;;;0.00;0.00;;;;;;;;;;4903399;29;20620;-64
2020/12/06 09:14:24;;;;;;;0.00;0.00;;;;;;;;;;4903317;29;20031;-65
2020/12/06 09:16:50;;;;;;;0.00;0.00;;;;;;;;;;4904488;29;20027;-64
2020/12/06 09:19:16;;;;;;;0.03;0.03;;;;;;;;;;4904936;29;20086;-64
2020/12/06 09:21:53;;;;;;;0.38;0.38;;;;;;;;;;4903618;29;21693;-64
2020/12/06 09:24:21;;;;;;;0.00;0.00;;;;;;;;;;4904787;29;20083;-65
2020/12/06 09:26:46;;;;;;;0.57;0.57;;;;;;;;;;4905323;29;20484;-64
2020/12/06 09:29:17;;;;;;;0.47;0.47;;;;;;;;;;4902796;29;21667;-64
2020/12/06 09:31:45;;;;;;;0.15;0.15;;;;;;;;;;4919042;28;20051;-64
2020/12/06 09:34:10;;;;;;;0.00;0.00;;;;;;;;;;4904346;29;21154;-65
2020/12/06 09:36:40;;;;;;;0.00;0.00;;;;;;;;;;4903334;29;20085;-67
2020/12/06 09:39:06;;;;;;;0.00;0.00;;;;;;;;;;4904712;29;20035;-65
2020/12/06 09:41:33;;;;;;;0.03;0.03;;;;;;;;;;4903592;29;20216;-64
2020/12/06 09:44:04;;;;;;;0.00;0.00;;;;;;;;;;4907309;29;20031;-65
2020/12/06 09:46:33;;;;;;;3.92;2.20;;;;;;;;;;4922181;28;20183;-65
2020/12/06 09:49:01;;;;;;;0.32;0.32;;;;;;;;;;4908065;29;20141;-65
2020/12/06 09:51:26;;;;;;;0.32;0.32;;;;;;;;;;4908152;29;20032;-67
2020/12/06 09:53:55;;;;;;;0.10;0.10;;;;;;;;;;4906759;29;20066;-65
2020/12/06 09:56:30;;;;;;;1.17;0.65;;;;;;;;;;4906599;29;20027;-66
2020/12/06 09:58:55;;;;;;;0.10;0.10;;;;;;;;;;4902418;29;21834;-64
2020/12/06 10:01:26;;;;;;;0.52;0.40;;;;;;;;;;4906373;29;20036;-66
2020/12/06 10:03:52;;;;;;;0.00;0.00;;;;;;;;;;4906886;29;20127;-65
2020/12/06 10:06:24;;;;;;;0.10;0.10;;;;;;;;;;4905353;29;20130;-65
2020/12/06 10:08:52;;;;;;;;;;;;;;;;;;4921877;28;20110;-65
2020/12/06 10:11:20;;;;;;;0.25;0.25;;;;;;;;;;4905405;29;19949;-66
2020/12/06 10:13:48;;;;;;;0.98;0.88;;;;;;;;;;4902764;29;20452;-66
2020/12/06 10:16:15;;;;;;;0.10;0.10;;;;;;;;;;4906874;29;20043;-64
2020/12/06 10:18:43;;;;;;;0.95;0.75;;;;;;;;;;4904465;29;20396;-65
2020/12/06 10:21:11;;;;;;;0.00;0.00;;;;;;;;;;4907191;29;20082;-66
2020/12/06 10:23:39;;;;;;;0.10;0.10;;;;;;;;;;4909237;29;20110;-64
2020/12/06 10:26:05;;;;;;;4.07;1.35;;;;;;;;;;4906636;29;20538;-66
2020/12/06 10:28:30;;;;;;;1.30;0.65;;;;;;;;;;4907009;28;20460;-66
2020/12/06 10:30:56;;;;;;;0.52;0.52;;;;;;;;;;4898877;29;20078;-65
2020/12/06 10:33:22;;;;;;;0.55;0.55;;;;;;;;;;4906249;29;20035;-66
2020/12/06 10:35:50;;;;;;;0.55;0.55;;;;;;;;;;4906039;29;20255;-66
2020/12/06 10:38:18;;;;;;;0.52;0.52;;;;;;;;;;4920800;28;20116;-64
2020/12/06 10:40:43;;;;;;;0.00;0.00;;;;;;;;;;4907057;29;20062;-67
2020/12/06 10:43:10;;;;;;;0.00;0.00;;;;;;;;;;4909909;29;20040;-66
2020/12/06 10:45:38;;;;;;;3.58;1.25;;;;;;;;;;4906562;29;20031;-66
2020/12/06 10:48:06;;;;;;;0.17;0.17;;;;;;;;;;4906723;29;20039;-66
2020/12/06 10:50:32;;;;;;;0.00;0.00;;;;;;;;;;4922176;28;20027;-66
2020/12/06 10:52:58;;;;;;;1.60;0.50;;;;;;;;;;4909067;29;21430;-66
2020/12/06 10:55:26;;;;;;;2.28;0.35;;;;;;;;;;4907660;29;20109;-66
2020/12/06 10:57:52;;;;;;;0.20;0.20;;;;;;;;;;4908130;29;20047;-65
2020/12/06 11:00:20;;;;;;;0.75;0.65;;;;;;;;;;4907466;29;20393;-66
2020/12/06 11:02:48;;;;;;;0.00;0.00;;;;;;;;;;4905593;29;20031;-66
2020/12/06 11:05:19;;;;;;;0.20;0.17;;;;;;;;;;4906013;29;20044;-65
2020/12/06 11:07:49;;;;;;;0.30;0.30;;;;;;;;;;4906943;29;20044;-70
2020/12/06 11:10:17;;;;;;;0.10;0.10;;;;;;;;;;4906830;29;20087;-66
2020/12/06 11:12:43;;;;;;;0.32;0.22;;;;;;;;;;4906754;29;22165;-67
2020/12/06 11:15:13;;;;;;;0.00;0.00;;;;;;;;;;4908700;29;20032;-65
2020/12/06 11:17:42;;;;;;;1.55;1.45;;;;;;;;;;4908211;29;20091;-67
2020/12/06 11:20:10;;;;;;;0.57;0.57;;;;;;;;;;4907773;29;20043;-66
2020/12/06 11:22:38;;;;;;;4.00;1.30;;;;;;;;;;4907989;29;20484;-68
2020/12/06 11:25:09;;;;;;;0.17;0.17;;;;;;;;;;4908357;29;20145;-67
2020/12/06 11:27:40;;;;;;;0.85;0.85;;;;;;;;;;4908503;29;20036;-66
2020/12/06 11:30:06;;;;;;;0.15;0.15;;;;;;;;;;4916348;28;20506;-65
2020/12/06 11:32:34;;;;;;;0.05;0.05;;;;;;;;;;4902757;29;20348;-65
2020/12/06 11:35:05;;;;;;;0.30;0.30;;;;;;;;;;4902579;29;20032;-69
2020/12/06 11:37:35;;;;;;;0.03;0.03;;;;;;;;;;4902422;29;20608;-64
2020/12/06 11:40:00;;;;;;;9.73;2.17;;;;;;;;;;4918171;28;20039;-65
2020/12/06 11:42:30;;;;;;;1.02;0.60;;;;;;;;;;4904536;29;20059;-66
2020/12/06 11:44:56;;;;;;;0.43;0.43;;;;;;;;;;4888453;29;20464;-65
2020/12/06 11:47:25;;;;;;;2.70;1.08;;;;;;;;;;4905428;29;20035;-66
2020/12/06 11:49:52;;;;;;;0.10;0.10;;;;;;;;;;4902037;29;20154;-66
2020/12/06 11:52:21;;;;;;;0.35;0.35;;;;;;;;;;4897410;29;20209;-66
2020/12/06 11:54:46;;;;;;;0.00;0.00;;;;;;;;;;4920444;28;20055;-66
2020/12/06 11:57:14;;;;;;;1.08;0.95;;;;;;;;;;4920994;28;20071;-65
2020/12/06 11:59:40;;;;;;;2.08;1.45;;;;;;;;;;4904359;29;20734;-66
2020/12/06 12:02:05;;;;;;;0.00;0.00;;;;;;;;;;4906064;29;20239;-65
2020/12/06 12:04:31;;;;;;;0.00;0.00;;;;;;;;;;4904760;29;20043;-66
2020/12/06 12:06:58;;;;;;;0.80;0.80;;;;;;;;;;4903223;29;20138;-66
2020/12/06 12:09:27;;;;;;;1.45;0.38;;;;;;;;;;4921126;28;20186;-65
2020/12/06 12:11:55;;;;;;;0.08;0.08;;;;;;;;;;4906440;29;20047;-67
2020/12/06 12:14:22;;;;;;;0.38;0.38;;;;;;;;;;4906667;29;20040;-67
2020/12/06 12:16:48;;;;;;;0.90;0.35;;;;;;;;;;4903652;29;20028;-67
2020/12/06 12:19:14;;;;;;;0.22;0.15;;;;;;;;;;4907750;29;20043;-65
2020/12/06 12:21:41;;;;;;;1.25;1.15;;;;;;;;;;4905517;29;20028;-66
2020/12/06 12:24:07;;;;;;;0.10;0.10;;;;;;;;;;4907585;29;20040;-66
2020/12/06 12:26:38;;;;;;;1.05;1.05;;;;;;;;;;4906825;29;20063;-67
2020/12/06 12:29:03;;;;;;;0.08;0.08;;;;;;;;;;4920909;28;20561;-65
2020/12/06 12:31:31;;;;;;;0.00;0.00;;;;;;;;;;4905485;29;20126;-66
2020/12/06 12:34:01;;;;;;;0.10;0.10;;;;;;;;;;4906267;29;20054;-65
2020/12/06 12:36:30;;;;;;;0.77;0.77;;;;;;;;;;4905439;29;20038;-65
2020/12/06 12:38:58;;;;;;;2.95;1.05;;;;;;;;;;4903350;29;20032;-66
2020/12/06 12:41:31;;;;;;;0.00;0.00;;;;;;;;;;4920164;28;20401;-65
2020/12/06 12:43:57;;;;;;;0.95;0.90;;;;;;;;;;4904259;28;20040;-66
2020/12/06 12:46:27;;;;;;;0.35;0.35;;;;;;;;;;4902270;29;20028;-66
2020/12/06 12:48:55;;;;;;;0.20;0.20;;;;;;;;;;4915467;28;20043;-67
2020/12/06 12:51:22;;;;;;;0.85;0.85;;;;;;;;;;4899288;29;20051;-66
2020/12/06 12:53:48;;;;;;;0.10;0.10;;;;;;;;;;4918722;28;20062;-68
2020/12/06 12:56:13;;;;;;;0.10;0.10;;;;;;;;;;4898717;29;20511;-65
2020/12/06 12:58:41;;;;;;;0.00;0.00;;;;;;;;;;4890660;29;20058;-66
2020/12/06 13:01:09;;;;;;;0.52;0.52;;;;;;;;;;4905275;29;20043;-66
2020/12/06 13:03:34;;;;;;;0.45;0.45;;;;;;;;;;4921125;28;20047;-66
2020/12/06 13:05:59;;;;;;;0.32;0.32;;;;;;;;;;4904179;29;20102;-66
2020/12/06 13:08:25;;;;;;;0.00;0.00;;;;;;;;;;4915861;28;20549;-66
2020/12/06 13:10:53;;;;;;;0.10;0.10;;;;;;;;;;4919122;28;20278;-66
2020/12/06 13:13:21;;;;;;;0.08;0.08;;;;;;;;;;4890214;29;20055;-66
2020/12/06 13:15:47;;;;;;;0.00;0.00;;;;;;;;;;4902347;29;20032;-67
2020/12/06 13:18:13;;;;;;;0.00;0.00;;;;;;;;;;4908713;29;20043;-65
2020/12/06 13:20:38;;;;;;;0.05;0.05;;;;;;;;;;4906971;29;20334;-65
2020/12/06 13:23:08;;;;;;;0.25;0.22;;;;;;;;;;4908176;29;21195;-64
2020/12/06 13:25:34;;;;;;;6.13;1.65;;;;;;;;;;4921475;28;20031;-63
2020/12/06 13:28:01;;;;;;;0.30;0.30;;;;;;;;;;4899125;29;20043;-65
2020/12/06 13:30:29;;;;;;;1.50;1.40;;;;;;;;;;4921365;28;20046;-63
2020/12/06 13:32:55;;;;;;;0.43;0.43;;;;;;;;;;4909014;29;20333;-64
2020/12/06 13:35:21;;;;;;;0.20;0.20;;;;;;;;;;4906987;29;20447;-63
2020/12/06 13:37:51;;;;;;;0.00;0.00;;;;;;;;;;4907642;29;20075;-65
2020/12/06 13:40:22;;;;;;;0.22;0.22;;;;;;;;;;4905233;29;20035;-64
2020/12/06 13:42:50;;;;;;;0.15;0.15;;;;;;;;;;4906628;29;20044;-62
2020/12/06 13:45:18;;;;;;;1.00;0.65;;;;;;;;;;4906699;29;20048;-64
2020/12/06 13:47:46;;;;;;;0.00;0.00;;;;;;;;;;4909156;29;20126;-64
2020/12/06 13:50:14;;;;;;;0.05;0.05;;;;;;;;;;4910356;29;20050;-62
2020/12/06 13:52:42;;;;;;;0.13;0.13;;;;;;;;;;4907456;29;20463;-62
2020/12/06 13:55:07;;;;;;;0.00;0.00;;;;;;;;;;4905478;29;20575;-61
2020/12/06 13:57:35;;;;;;;0.00;0.00;;;;;;;;;;4923613;28;20216;-61
2020/12/06 14:00:06;;;;;;;0.00;0.00;;;;;;;;;;4924247;28;20039;-62
2020/12/06 14:02:31;;;;;;;0.00;0.00;;;;;;;;;;4909473;29;20963;-61
2020/12/06 14:04:56;;;;;;;0.00;0.00;;;;;;;;;;4903665;28;20487;-62
2020/12/06 14:07:26;;;;;;;0.00;0.00;;;;;;;;;;4904504;29;20051;-60
2020/12/06 14:09:52;;;;;;;0.00;0.00;;;;;;;;;;4909626;29;20032;-60
2020/12/06 14:12:22;;;;;;;0.00;0.00;;;;;;;;;;4909406;29;20099;-61
2020/12/06 14:14:48;;;;;;;0.00;0.00;;;;;;;;;;4906140;29;20038;-61
2020/12/06 14:17:18;;;;;;;0.00;0.00;;;;;;;;;;4907849;29;20201;-60
2020/12/06 14:19:51;;;;;;;0.00;0.00;;;;;;;;;;4907789;29;20036;-60
2020/12/06 14:22:16;;;;;;;0.00;0.00;;;;;;;;;;4908578;29;20051;-60
2020/12/06 14:24:43;;;;;;;0.00;0.00;;;;;;;;;;4908344;29;20688;-61
2020/12/06 14:27:09;;;;;;;0.00;0.00;;;;;;;;;;4907949;29;20157;-60
2020/12/06 14:29:34;;;;;;;0.10;0.10;;;;;;;;;;4907272;29;20036;-60
2020/12/06 14:32:00;;;;;;;0.00;0.00;;;;;;;;;;4908519;29;20059;-60
2020/12/06 14:35:05;;;;;;;0.00;0.00;;;;;;;;;;4906937;29;20039;-60
2020/12/06 14:37:35;;;;;;;0.65;0.65;;;;;;;;;;4908771;29;20070;-60
2020/12/06 14:40:04;;;;;;;0.30;0.30;;;;;;;;;;4910120;29;20046;-59
2020/12/06 14:42:30;;;;;;;0.00;0.00;;;;;;;;;;4907227;29;20047;-62
2020/12/06 14:44:56;;;;;;;0.10;0.10;;;;;;;;;;4909811;29;20535;-61
2020/12/06 14:47:24;;;;;;;0.60;0.60;;;;;;;;;;4907463;29;20428;-62
2020/12/06 14:49:49;;;;;;;0.00;0.00;;;;;;;;;;4907725;29;20027;-60
2020/12/06 14:52:17;;;;;;;0.20;0.20;;;;;;;;;;4907574;29;20046;-60
2020/12/06 14:54:43;;;;;;;0.00;0.00;;;;;;;;;;4907958;29;20028;-60
2020/12/06 14:57:12;;;;;;;0.13;0.13;;;;;;;;;;4908280;29;20046;-61
2020/12/06 14:59:42;;;;;;;0.00;0.00;;;;;;;;;;4909334;29;20052;-60
2020/12/06 15:02:09;;;;;;;0.00;0.00;;;;;;;;;;4907586;29;20067;-61
2020/12/06 15:04:37;;;;;;;0.30;0.30;;;;;;;;;;4906529;29;20259;-58
2020/12/06 15:07:05;;;;;;;0.20;0.20;;;;;;;;;;4908010;29;20794;-60